Time;durP1;ratioP1;P1;durP2;ratioP2;P2;SDS_P1;SDS_P2;PMS_P1;PMS_P2;Temp;Humidity;BMP_temperature;BMP_pressure;BME280_temperature;BME280_humidity;BME280_pressure;Samples;Min_cycle;Max_cycle;Signal;HPM_P1;HPM_P2
2022/11/27 00:00:58;;;;;;;;;;;5.60;99.90;;;;;;5136255;27;19928;-69
2022/11/27 00:03:23;;;;;;;;;;;5.50;99.90;;;;;;5096247;28;20357;-68
2022/11/27 00:05:50;;;;;;;;;;;5.50;99.90;;;;;;5131878;27;19931;-68
2022/11/27 00:08:15;;;;;;;;;;;5.50;99.90;;;;;;5092646;28;20428;-69
2022/11/27 00:10:41;;;;;;;;;;;5.60;99.90;;;;;;5081893;28;19928;-71
2022/11/27 00:13:06;;;;;;;;;;;5.50;99.90;;;;;;5097779;28;20297;-69
2022/11/27 00:15:32;;;;;;;;;;;5.50;99.90;;;;;;5134880;27;19923;-69
2022/11/27 00:17:58;;;;;;;;;;;5.40;99.90;;;;;;5097132;28;19927;-69
2022/11/27 00:20:23;;;;;;;;;;;5.50;99.90;;;;;;5100707;27;19919;-68
2022/11/27 00:22:49;;;;;;;;;;;5.50;99.90;;;;;;5090279;27;20010;-68
2022/11/27 00:25:14;;;;;;;;;;;5.40;99.90;;;;;;5095433;27;19927;-68
2022/11/27 00:27:40;;;;;;;;;;;5.50;99.90;;;;;;5113183;27;19958;-68
2022/11/27 00:30:05;;;;;;;;;;;5.50;99.90;;;;;;5099521;28;19920;-70
2022/11/27 00:32:31;;;;;;;;;;;5.50;99.90;;;;;;5095248;27;19920;-69
2022/11/27 00:34:56;;;;;;;;;;;5.40;99.90;;;;;;5099891;28;19924;-69
2022/11/27 00:37:22;;;;;;;;;;;5.40;99.90;;;;;;5100715;28;19928;-70
2022/11/27 00:39:47;;;;;;;;;;;5.40;99.90;;;;;;5104553;28;19920;-70
2022/11/27 00:42:13;;;;;;;;;;;5.40;99.90;;;;;;5099648;28;19924;-70
2022/11/27 00:44:38;;;;;;;;;;;5.30;99.90;;;;;;5132481;27;19942;-71
2022/11/27 00:47:04;;;;;;;;;;;5.30;99.90;;;;;;5091296;28;20362;-70
2022/11/27 00:49:29;;;;;;;;;;;5.20;99.90;;;;;;5100133;28;19928;-70
2022/11/27 00:51:55;;;;;;;;;;;5.20;99.90;;;;;;5097243;28;19923;-71
2022/11/27 00:54:20;;;;;;;;;;;5.20;99.90;;;;;;5133109;27;19924;-69
2022/11/27 00:56:46;;;;;;;;;;;5.20;99.90;;;;;;5091192;28;20054;-70
2022/11/27 00:59:11;;;;;;;;;;;5.20;99.90;;;;;;5093464;28;20397;-69
2022/11/27 01:01:38;;;;;;;;;;;5.20;99.90;;;;;;5093206;27;20021;-69
2022/11/27 01:04:05;;;;;;;;;;;5.10;99.90;;;;;;5135836;27;19980;-70
2022/11/27 01:06:30;;;;;;;;;;;5.10;99.90;;;;;;5094414;28;20401;-70
2022/11/27 01:08:56;;;;;;;;;;;5.20;99.90;;;;;;5102179;28;19920;-69
2022/11/27 01:11:26;;;;;;;;;;;5.10;99.90;;;;;;5096954;28;19926;-70
2022/11/27 01:13:52;;;;;;;;;;;5.00;99.90;;;;;;5125826;27;19928;-69
2022/11/27 01:16:18;;;;;;;;;;;5.10;99.90;;;;;;5095694;27;20325;-69
2022/11/27 01:18:45;;;;;;;;;;;5.00;99.90;;;;;;5078169;28;20328;-70
2022/11/27 01:21:11;;;;;;;;;;;5.00;99.90;;;;;;5095015;28;20298;-69
2022/11/27 01:23:37;;;;;;;;;;;5.10;99.90;;;;;;5098743;28;20011;-72
2022/11/27 01:26:04;;;;;;;;;;;5.10;99.90;;;;;;5082734;28;20022;-70
2022/11/27 01:28:29;;;;;;;;;;;5.10;99.90;;;;;;5128944;27;20611;-70
2022/11/27 01:30:55;;;;;;;;;;;4.90;99.90;;;;;;5103411;27;19966;-70
2022/11/27 01:33:20;;;;;;;;;;;5.00;99.90;;;;;;5104648;27;19967;-70
2022/11/27 01:35:56;;;;;;;;;;;5.00;99.90;;;;;;5102004;28;19977;-70
2022/11/27 01:38:22;;;;;;;;;;;4.80;99.90;;;;;;5095954;27;19931;-69
2022/11/27 01:40:47;;;;;;;;;;;4.90;99.90;;;;;;5092825;28;19920;-69
2022/11/27 01:43:14;;;;;;;;;;;4.90;99.90;;;;;;5122169;27;19927;-69
2022/11/27 01:45:39;;;;;;;;;;;4.90;99.90;;;;;;5106696;28;19994;-70
2022/11/27 01:48:05;;;;;;;;;;;4.80;99.90;;;;;;5081760;28;20409;-68
2022/11/27 01:50:32;;;;;;;;;;;4.80;99.90;;;;;;5095756;27;19920;-69
2022/11/27 01:53:01;;;;;;;;;;;4.80;99.90;;;;;;5099573;27;19931;-68
2022/11/27 01:55:29;;;;;;;;;;;4.80;99.90;;;;;;5094266;28;19928;-68
2022/11/27 01:57:59;;;;;;;;;;;4.70;99.90;;;;;;5102425;27;20390;-69
2022/11/27 02:00:25;;;;;;;;;;;4.80;99.90;;;;;;5130772;27;19967;-68
2022/11/27 02:02:51;;;;;;;;;;;4.70;99.90;;;;;;5083039;27;20361;-67
2022/11/27 02:05:17;;;;;;;;;;;4.70;99.90;;;;;;5128605;27;20333;-69
2022/11/27 02:07:44;;;;;;;;;;;4.70;99.90;;;;;;5081648;28;19973;-70
2022/11/27 02:10:09;;;;;;;;;;;4.80;99.90;;;;;;5113917;27;20275;-68
2022/11/27 02:12:40;;;;;;;;;;;4.80;99.90;;;;;;5062481;28;19998;-68
2022/11/27 02:15:12;;;;;;;;;;;4.70;99.90;;;;;;5080278;27;19958;-69
2022/11/27 02:17:56;;;;;;;;;;;4.80;99.90;;;;;;5085512;28;19920;-68
2022/11/27 02:20:28;;;;;;;;;;;4.80;99.90;;;;;;5078024;28;19928;-68
2022/11/27 02:22:53;;;;;;;;;;;4.80;99.90;;;;;;5074486;28;19930;-69
2022/11/27 02:25:37;;;;;;;;;;;4.80;99.90;;;;;;5076303;28;20366;-69
2022/11/27 02:28:09;;;;;;;;;;;4.70;99.90;;;;;;5075568;28;19923;-70
2022/11/27 02:30:37;;;;;;;;;;;4.90;99.90;;;;;;5077525;28;20022;-68
2022/11/27 02:33:07;;;;;;;;;;;4.70;99.90;;;;;;5081596;28;19920;-70
2022/11/27 02:35:36;;;;;;;;;;;4.80;99.90;;;;;;5077864;28;21115;-71
2022/11/27 02:38:06;;;;;;;;;;;4.90;99.90;;;;;;5090680;27;19920;-71
2022/11/27 02:40:37;;;;;;;;;;;4.90;99.90;;;;;;5077305;28;19920;-70
2022/11/27 02:43:14;;;;;;;;;;;4.80;99.90;;;;;;5081892;28;19924;-72
2022/11/27 02:45:41;;;;;;;;;;;4.80;99.90;;;;;;5079979;28;19932;-70
2022/11/27 02:48:07;;;;;;;;;;;4.80;99.90;;;;;;5073582;28;19960;-72
2022/11/27 02:50:34;;;;;;;;;;;4.80;99.90;;;;;;5076896;28;20419;-71
2022/11/27 02:53:02;;;;;;;;;;;4.80;99.90;;;;;;5075770;28;20293;-71
2022/11/27 02:55:31;;;;;;;;;;;4.80;99.90;;;;;;5080957;28;19932;-71
2022/11/27 02:57:57;;;;;;;;;;;4.80;99.90;;;;;;5078776;28;20336;-71
2022/11/27 03:00:22;;;;;;;;;;;4.70;99.90;;;;;;5075831;27;19949;-71
2022/11/27 03:02:53;;;;;;;;;;;4.80;99.90;;;;;;5075495;28;20144;-71
2022/11/27 03:05:20;;;;;;;;;;;4.80;99.90;;;;;;5082413;28;19928;-71
2022/11/27 03:07:49;;;;;;;;;;;4.80;99.90;;;;;;5071366;28;20113;-70
2022/11/27 03:10:18;;;;;;;;;;;4.60;99.90;;;;;;5069322;28;20006;-68
2022/11/27 03:12:44;;;;;;;;;;;4.70;99.90;;;;;;5068650;28;19974;-69
2022/11/27 03:15:10;;;;;;;;;;;4.60;99.90;;;;;;5105682;27;19920;-68
2022/11/27 03:17:49;;;;;;;;;;;4.70;99.90;;;;;;5076355;28;19926;-69
2022/11/27 03:20:18;;;;;;;;;;;4.70;99.90;;;;;;5096707;27;19949;-69
2022/11/27 03:22:43;;;;;;;;;;;4.70;99.90;;;;;;5112982;27;20246;-70
2022/11/27 03:25:09;;;;;;;;;;;4.60;99.90;;;;;;5105407;27;19991;-68
2022/11/27 03:27:38;;;;;;;;;;;4.70;99.90;;;;;;5116021;27;19927;-71
2022/11/27 03:30:05;;;;;;;;;;;4.70;99.90;;;;;;5083529;27;19927;-70
2022/11/27 03:32:31;;;;;;;;;;;4.60;99.90;;;;;;5076182;27;19920;-69
2022/11/27 03:34:57;;;;;;;;;;;4.70;99.90;;;;;;5117712;27;20046;-69
2022/11/27 03:37:23;;;;;;;;;;;4.70;99.90;;;;;;5111454;27;19955;-70
2022/11/27 03:39:48;;;;;;;;;;;4.70;99.90;;;;;;5081162;27;19928;-70
2022/11/27 03:42:29;;;;;;;;;;;4.70;99.90;;;;;;5096475;27;19931;-70
2022/11/27 03:45:18;;;;;;;;;;;4.70;99.90;;;;;;5086801;27;19961;-69
2022/11/27 03:47:56;;;;;;;;;;;4.80;99.90;;;;;;5082819;27;19924;-69
2022/11/27 03:50:40;;;;;;;;;;;4.80;99.90;;;;;;5088150;27;19919;-71
2022/11/27 03:53:24;;;;;;;;;;;4.80;99.90;;;;;;5078450;27;19924;-69
2022/11/27 03:55:53;;;;;;;;;;;4.80;99.90;;;;;;5116375;27;20358;-69
2022/11/27 03:58:26;;;;;;;;;;;5.00;99.90;;;;;;5081496;27;19928;-69
2022/11/27 04:00:51;;;;;;;;;;;4.90;99.90;;;;;;5117783;27;19974;-70
2022/11/27 04:03:21;;;;;;;;;;;5.00;99.90;;;;;;5081683;27;19971;-70
2022/11/27 04:05:47;;;;;;;;;;;5.00;99.90;;;;;;5079584;27;19935;-68
2022/11/27 04:08:12;;;;;;;;;;;4.90;99.90;;;;;;5086683;27;19923;-70
2022/11/27 04:10:37;;;;;;;;;;;4.90;99.90;;;;;;5100146;27;20034;-69
2022/11/27 04:13:03;;;;;;;;;;;4.90;99.90;;;;;;5128513;27;19927;-68
2022/11/27 04:15:28;;;;;;;;;;;5.10;99.90;;;;;;5098971;27;20026;-70
2022/11/27 04:17:54;;;;;;;;;;;5.10;99.90;;;;;;5101386;27;20420;-69
2022/11/27 04:20:21;;;;;;;;;;;5.10;99.90;;;;;;5099431;27;20228;-69
2022/11/27 04:22:47;;;;;;;;;;;5.00;99.90;;;;;;5100553;27;20022;-71
2022/11/27 04:25:12;;;;;;;;;;;5.00;99.90;;;;;;5101955;27;21771;-69
2022/11/27 04:27:38;;;;;;;;;;;5.00;99.90;;;;;;5127623;27;19978;-69
2022/11/27 04:30:03;;;;;;;;;;;5.00;99.90;;;;;;5099102;27;20012;-69
2022/11/27 04:32:29;;;;;;;;;;;5.00;99.90;;;;;;5094557;27;19931;-69
2022/11/27 04:34:54;;;;;;;;;;;5.10;99.90;;;;;;5099528;28;19939;-69
2022/11/27 04:37:20;;;;;;;;;;;5.10;99.90;;;;;;5097240;28;20302;-67
2022/11/27 04:39:45;;;;;;;;;;;5.10;99.90;;;;;;5091445;27;19981;-68
2022/11/27 04:42:11;;;;;;;;;;;5.10;99.90;;;;;;5131155;27;19923;-69
2022/11/27 04:44:36;;;;;;;;;;;5.00;99.90;;;;;;5078125;28;19924;-69
2022/11/27 04:47:02;;;;;;;;;;;5.10;99.90;;;;;;5092542;28;19963;-71
2022/11/27 04:49:27;;;;;;;;;;;5.10;99.90;;;;;;5092854;28;19966;-69
2022/11/27 04:51:53;;;;;;;;;;;5.10;99.90;;;;;;5098159;28;19935;-70
2022/11/27 04:54:18;;;;;;;;;;;5.10;99.90;;;;;;5098007;28;19924;-70
2022/11/27 04:56:44;;;;;;;;;;;5.00;99.90;;;;;;5094291;27;20285;-69
2022/11/27 04:59:09;;;;;;;;;;;5.20;99.90;;;;;;5098866;28;19919;-69
2022/11/27 05:01:35;;;;;;;;;;;5.10;99.90;;;;;;5094956;28;20026;-69
2022/11/27 05:04:00;;;;;;;;;;;5.20;99.90;;;;;;5097551;28;19935;-69
2022/11/27 05:06:26;;;;;;;;;;;5.20;99.90;;;;;;5097114;27;19982;-69
2022/11/27 05:08:58;;;;;;;;;;;5.20;99.90;;;;;;5096174;27;19923;-69
2022/11/27 05:11:23;;;;;;;;;;;5.10;99.90;;;;;;5100782;28;19931;-68
2022/11/27 05:14:13;;;;;;;;;;;5.10;99.90;;;;;;5094442;28;20298;-68
2022/11/27 05:16:35;;;;;;;;;;;5.10;99.90;;;;;;5093283;28;19943;-67
2022/11/27 05:19:00;;;;;;;;;;;5.20;99.90;;;;;;5093268;27;20410;-69
2022/11/27 05:21:26;;;;;;;;;;;5.20;99.90;;;;;;5094713;28;19966;-70
2022/11/27 05:23:51;;;;;;;;;;;5.10;99.90;;;;;;5128207;27;20286;-69
2022/11/27 05:26:17;;;;;;;;;;;5.10;99.90;;;;;;5088457;27;19934;-70
2022/11/27 05:28:42;;;;;;;;;;;5.10;99.90;;;;;;5094640;27;20327;-68
2022/11/27 05:31:07;;;;;;;;;;;5.10;99.90;;;;;;5096049;27;19928;-69
2022/11/27 05:33:33;;;;;;;;;;;5.20;99.90;;;;;;5096584;28;19926;-68
2022/11/27 05:35:58;;;;;;;;;;;5.10;99.90;;;;;;5097463;28;20017;-67
2022/11/27 05:38:24;;;;;;;;;;;5.20;99.90;;;;;;5100102;28;19924;-71
2022/11/27 05:40:49;;;;;;;;;;;5.20;99.90;;;;;;5090664;28;20455;-66
2022/11/27 05:43:15;;;;;;;;;;;5.20;99.90;;;;;;5092483;28;19924;-68
2022/11/27 05:45:40;;;;;;;;;;;5.20;99.90;;;;;;5092000;28;19928;-69
2022/11/27 05:48:06;;;;;;;;;;;5.20;99.90;;;;;;5093387;28;19942;-68
2022/11/27 05:50:31;;;;;;;;;;;5.20;99.90;;;;;;5092043;27;19920;-69
2022/11/27 05:52:57;;;;;;;;;;;5.20;99.90;;;;;;5096839;28;20665;-68
2022/11/27 05:55:22;;;;;;;;;;;5.30;99.90;;;;;;5128865;27;20406;-68
2022/11/27 05:57:48;;;;;;;;;;;5.30;99.90;;;;;;5097844;28;19927;-71
2022/11/27 06:00:13;;;;;;;;;;;5.20;99.90;;;;;;5093377;28;19934;-68
2022/11/27 06:02:39;;;;;;;;;;;5.20;99.90;;;;;;5089994;28;19923;-69
2022/11/27 06:05:05;;;;;;;;;;;5.30;99.90;;;;;;5094781;28;19928;-68
2022/11/27 06:07:30;;;;;;;;;;;5.30;99.90;;;;;;5092697;28;19931;-67
2022/11/27 06:09:56;;;;;;;;;;;5.30;99.90;;;;;;5129718;27;19920;-67
2022/11/27 06:12:21;;;;;;;;;;;5.30;99.90;;;;;;5094242;27;19920;-66
2022/11/27 06:14:47;;;;;;;;;;;5.30;99.90;;;;;;5099283;28;19924;-68
2022/11/27 06:17:15;;;;;;;;;;;5.30;99.90;;;;;;5093794;27;19942;-66
2022/11/27 06:19:43;;;;;;;;;;;5.30;99.90;;;;;;5093358;28;19924;-68
2022/11/27 06:22:09;;;;;;;;;;;5.30;99.90;;;;;;5091886;28;20029;-67
2022/11/27 06:24:34;;;;;;;;;;;5.30;99.90;;;;;;5098669;28;20436;-68
2022/11/27 06:27:00;;;;;;;;;;;5.20;99.90;;;;;;5095728;28;19930;-67
2022/11/27 06:29:25;;;;;;;;;;;5.30;99.90;;;;;;5094743;28;19934;-69
2022/11/27 06:31:51;;;;;;;;;;;5.30;99.90;;;;;;5133470;27;20373;-67
2022/11/27 06:34:16;;;;;;;;;;;5.40;99.90;;;;;;5093590;27;20006;-68
2022/11/27 06:36:42;;;;;;;;;;;5.30;99.90;;;;;;5092268;27;19989;-69
2022/11/27 06:39:09;;;;;;;;;;;5.40;99.90;;;;;;5095032;28;19923;-68
2022/11/27 06:41:34;;;;;;;;;;;5.30;99.90;;;;;;5089932;28;19949;-66
2022/11/27 06:44:00;;;;;;;;;;;5.40;99.90;;;;;;5129628;27;19972;-68
2022/11/27 06:46:26;;;;;;;;;;;5.40;99.90;;;;;;5091889;27;19928;-67
2022/11/27 06:48:52;;;;;;;;;;;5.40;99.90;;;;;;5096420;27;19935;-69
2022/11/27 06:51:19;;;;;;;;;;;5.40;99.90;;;;;;5091789;28;20289;-68
2022/11/27 06:53:45;;;;;;;;;;;5.40;99.90;;;;;;5127622;27;19924;-68
2022/11/27 06:56:15;;;;;;;;;;;5.40;99.90;;;;;;5126474;27;19946;-67
2022/11/27 06:58:40;;;;;;;;;;;5.40;99.90;;;;;;5095939;27;19920;-68
2022/11/27 07:01:08;;;;;;;;;;;5.40;99.90;;;;;;5089364;28;19986;-67
2022/11/27 07:03:34;;;;;;;;;;;5.40;99.90;;;;;;5094516;27;20293;-68
2022/11/27 07:06:00;;;;;;;;;;;5.40;99.90;;;;;;5098612;28;19981;-67
2022/11/27 07:08:25;;;;;;;;;;;5.50;99.90;;;;;;5093318;28;19947;-68
2022/11/27 07:10:51;;;;;;;;;;;5.30;99.90;;;;;;5088996;28;19920;-68
2022/11/27 07:13:16;;;;;;;;;;;5.40;99.90;;;;;;5094107;28;19938;-67
2022/11/27 07:15:42;;;;;;;;;;;5.40;99.90;;;;;;5096719;27;20290;-69
2022/11/27 07:18:07;;;;;;;;;;;5.50;99.90;;;;;;5091478;28;19970;-67
2022/11/27 07:20:33;;;;;;;;;;;5.40;99.90;;;;;;5131673;27;19923;-69
2022/11/27 07:22:58;;;;;;;;;;;5.50;99.90;;;;;;5091662;28;19931;-67
2022/11/27 07:25:24;;;;;;;;;;;5.50;99.90;;;;;;5089405;28;19973;-68
2022/11/27 07:27:49;;;;;;;;;;;5.40;99.90;;;;;;5089597;28;19951;-68
2022/11/27 07:30:15;;;;;;;;;;;5.50;99.90;;;;;;5125930;27;20355;-68
2022/11/27 07:32:40;;;;;;;;;;;5.40;99.90;;;;;;5093924;28;19927;-68
2022/11/27 07:35:06;;;;;;;;;;;5.50;99.90;;;;;;5091222;28;20256;-67
2022/11/27 07:37:32;;;;;;;;;;;5.60;99.90;;;;;;5093183;28;19970;-67
2022/11/27 07:39:57;;;;;;;;;;;5.50;99.90;;;;;;5100777;28;19928;-67
2022/11/27 07:42:23;;;;;;;;;;;5.60;99.90;;;;;;5126987;27;19989;-67
2022/11/27 07:44:48;;;;;;;;;;;5.60;99.90;;;;;;5097574;28;19932;-67
2022/11/27 07:47:14;;;;;;;;;;;5.50;99.90;;;;;;5097817;28;20396;-68
2022/11/27 07:49:39;;;;;;;;;;;5.50;99.90;;;;;;5100418;28;20026;-68
2022/11/27 07:52:05;;;;;;;;;;;5.60;99.90;;;;;;5096636;28;19920;-68
2022/11/27 07:54:30;;;;;;;;;;;5.60;99.90;;;;;;5098083;28;19928;-67
2022/11/27 07:56:56;;;;;;;;;;;5.60;99.90;;;;;;5092533;28;19997;-68
2022/11/27 07:59:22;;;;;;;;;;;5.70;99.90;;;;;;5101037;28;20416;-67
2022/11/27 08:01:47;;;;;;;;;;;5.60;99.90;;;;;;5094474;28;19931;-67
2022/11/27 08:04:13;;;;;;;;;;;5.60;99.90;;;;;;5088365;28;20231;-66
2022/11/27 08:06:38;;;;;;;;;;;5.70;99.90;;;;;;5092141;28;19938;-67
2022/11/27 08:09:04;;;;;;;;;;;5.70;99.90;;;;;;5095880;27;20379;-68
2022/11/27 08:11:31;;;;;;;;;;;5.70;99.90;;;;;;5095873;28;19924;-68
2022/11/27 08:13:59;;;;;;;;;;;5.70;99.90;;;;;;5127056;27;19947;-67
2022/11/27 08:16:25;;;;;;;;;;;5.70;99.90;;;;;;5101964;27;19920;-67
2022/11/27 08:18:51;;;;;;;;;;;5.80;99.90;;;;;;5099401;27;19924;-67
2022/11/27 08:21:17;;;;;;;;;;;5.70;99.90;;;;;;5129320;27;20347;-68
2022/11/27 08:23:43;;;;;;;;;;;5.80;99.90;;;;;;5091911;27;19924;-68
2022/11/27 08:26:09;;;;;;;;;;;5.80;99.90;;;;;;5094882;27;20623;-67
2022/11/27 08:28:35;;;;;;;;;;;5.80;99.90;;;;;;5096898;27;19919;-66
2022/11/27 08:31:01;;;;;;;;;;;5.90;99.90;;;;;;5096560;27;19931;-68
2022/11/27 08:33:27;;;;;;;;;;;5.90;99.90;;;;;;5094626;27;19930;-68
2022/11/27 08:35:53;;;;;;;;;;;5.90;99.90;;;;;;5096053;27;19928;-68
2022/11/27 08:38:18;;;;;;;;;;;6.00;99.90;;;;;;5130061;27;19939;-67
2022/11/27 08:40:44;;;;;;;;;;;5.90;99.90;;;;;;5098316;28;19920;-68
2022/11/27 08:43:10;;;;;;;;;;;5.90;99.90;;;;;;5099991;27;19923;-67
2022/11/27 08:45:38;;;;;;;;;;;5.90;99.90;;;;;;5094076;28;19932;-67
2022/11/27 08:48:04;;;;;;;;;;;6.00;99.90;;;;;;5096634;28;20340;-68
2022/11/27 08:50:29;;;;;;;;;;;6.00;99.90;;;;;;5100551;28;19984;-69
2022/11/27 08:52:55;;;;;;;;;;;6.00;99.90;;;;;;5098208;28;19923;-68
2022/11/27 08:55:21;;;;;;;;;;;6.00;99.90;;;;;;5098935;28;20000;-69
2022/11/27 08:57:46;;;;;;;;;;;6.00;99.90;;;;;;5093321;28;20390;-68
2022/11/27 09:00:12;;;;;;;;;;;6.10;99.90;;;;;;5097386;28;19927;-68
2022/11/27 09:02:37;;;;;;;;;;;6.00;99.90;;;;;;5090988;27;19928;-67
2022/11/27 09:05:06;;;;;;;;;;;6.10;99.90;;;;;;5121317;27;19920;-68
2022/11/27 09:07:32;;;;;;;;;;;6.00;99.90;;;;;;5100464;28;19920;-67
2022/11/27 09:09:57;;;;;;;;;;;6.10;99.90;;;;;;5134195;27;20242;-68
2022/11/27 09:12:23;;;;;;;;;;;6.10;99.90;;;;;;5101527;28;19928;-68
2022/11/27 09:14:48;;;;;;;;;;;6.20;99.90;;;;;;5091425;28;20342;-66
2022/11/27 09:17:14;;;;;;;;;;;6.10;99.90;;;;;;5096673;28;20411;-70
2022/11/27 09:19:39;;;;;;;;;;;6.10;99.90;;;;;;5096414;28;19934;-70
2022/11/27 09:22:05;;;;;;;;;;;6.20;99.90;;;;;;5102681;28;19924;-71
2022/11/27 09:24:30;;;;;;;;;;;6.10;99.90;;;;;;5108089;28;20007;-70
2022/11/27 09:26:55;;;;;;;;;;;6.10;99.90;;;;;;5091653;28;20349;-71
2022/11/27 09:29:21;;;;;;;;;;;6.10;99.90;;;;;;5123920;27;19927;-70
2022/11/27 09:31:46;;;;;;;;;;;6.20;99.90;;;;;;5110393;28;20504;-71
2022/11/27 09:34:12;;;;;;;;;;;6.20;99.90;;;;;;5094606;28;19956;-71
2022/11/27 09:36:37;;;;;;;;;;;6.20;99.90;;;;;;5100783;28;20255;-72
2022/11/27 09:39:03;;;;;;;;;;;6.10;99.90;;;;;;5108170;28;19927;-72
2022/11/27 09:41:32;;;;;;;;;;;6.10;99.90;;;;;;5110872;28;19924;-72
2022/11/27 09:44:01;;;;;;;;;;;6.20;99.90;;;;;;5108914;28;20446;-74
2022/11/27 09:46:31;;;;;;;;;;;6.10;99.90;;;;;;5107180;28;19930;-73
2022/11/27 09:48:59;;;;;;;;;;;6.20;99.90;;;;;;5104247;28;19934;-73
2022/11/27 09:51:30;;;;;;;;;;;6.10;99.90;;;;;;5102113;28;19926;-72
2022/11/27 09:54:02;;;;;;;;;;;6.20;99.90;;;;;;5106343;28;20006;-71
2022/11/27 09:56:28;;;;;;;;;;;6.20;99.90;;;;;;5101642;28;19967;-71
2022/11/27 09:58:58;;;;;;;;;;;6.20;99.90;;;;;;5140906;27;19924;-72
2022/11/27 10:01:28;;;;;;;;;;;6.20;99.90;;;;;;5102224;28;19949;-71
2022/11/27 10:03:54;;;;;;;;;;;6.30;99.90;;;;;;5111806;27;19973;-71
2022/11/27 10:06:38;;;;;;;;;;;6.20;99.90;;;;;;5107943;28;19967;-72
2022/11/27 10:09:07;;;;;;;;;;;6.30;99.90;;;;;;5108713;28;19919;-71
2022/11/27 10:11:48;;;;;;;;;;;6.30;99.90;;;;;;5103558;28;20186;-72
2022/11/27 10:14:28;;;;;;;;;;;6.30;99.90;;;;;;5108627;28;20259;-73
2022/11/27 10:16:58;;;;;;;;;;;6.30;99.90;;;;;;5103501;28;19955;-71
2022/11/27 10:19:42;;;;;;;;;;;6.30;99.90;;;;;;5131696;27;19924;-72
2022/11/27 10:22:18;;;;;;;;;;;6.30;99.90;;;;;;5099546;28;19962;-72
2022/11/27 10:24:46;;;;;;;;;;;6.40;99.90;;;;;;5097196;27;19920;-73
2022/11/27 10:27:19;;;;;;;;;;;6.30;99.90;;;;;;5104677;28;20378;-74
2022/11/27 10:29:52;;;;;;;;;;;6.40;99.90;;;;;;5105368;28;19931;-72
2022/11/27 10:32:19;;;;;;;;;;;6.40;99.90;;;;;;5127263;27;19928;-73
2022/11/27 10:34:45;;;;;;;;;;;6.40;99.90;;;;;;5106201;28;19949;-74
2022/11/27 10:37:16;;;;;;;;;;;6.50;99.90;;;;;;5104417;28;19920;-73
2022/11/27 10:39:45;;;;;;;;;;;6.40;99.90;;;;;;5080829;28;19931;-71
2022/11/27 10:42:11;;;;;;;;;;;6.40;99.90;;;;;;5105965;28;19920;-71
2022/11/27 10:44:42;;;;;;;;;;;6.40;99.90;;;;;;5107091;28;19920;-73
2022/11/27 10:47:10;;;;;;;;;;;6.50;99.90;;;;;;5109009;28;19993;-73
2022/11/27 10:49:38;;;;;;;;;;;6.40;99.90;;;;;;5092688;28;19923;-72
2022/11/27 10:52:04;;;;;;;;;;;6.50;99.90;;;;;;5108039;28;19974;-73
2022/11/27 10:54:33;;;;;;;;;;;6.60;99.90;;;;;;5092526;28;19966;-73
2022/11/27 10:56:58;;;;;;;;;;;6.50;99.90;;;;;;5143181;27;19927;-72
2022/11/27 10:59:26;;;;;;;;;;;6.60;99.90;;;;;;5102831;28;20278;-72
2022/11/27 11:01:52;;;;;;;;;;;6.50;99.90;;;;;;5089588;28;19920;-72
2022/11/27 11:04:24;;;;;;;;;;;6.60;99.90;;;;;;5093086;28;20394;-74
2022/11/27 11:06:50;;;;;;;;;;;6.60;99.90;;;;;;5106766;28;19928;-74
2022/11/27 11:09:21;;;;;;;;;;;6.60;99.90;;;;;;5110662;28;20401;-71
2022/11/27 11:11:47;;;;;;;;;;;6.60;99.90;;;;;;5106571;28;20386;-70
2022/11/27 11:14:18;;;;;;;;;;;6.60;99.90;;;;;;5107441;28;19976;-72
2022/11/27 11:16:43;;;;;;;;;;;6.60;99.90;;;;;;5109770;28;19924;-74
2022/11/27 11:19:24;;;;;;;;;;;6.70;99.90;;;;;;5107702;28;19931;-74
2022/11/27 11:21:50;;;;;;;;;;;6.70;99.90;;;;;;5109544;28;19980;-72
2022/11/27 11:24:28;;;;;;;;;;;6.70;99.90;;;;;;5102106;28;19927;-72
2022/11/27 11:26:58;;;;;;;;;;;6.70;99.90;;;;;;5091091;28;19927;-69
2022/11/27 11:29:36;;;;;;;;;;;6.70;99.90;;;;;;5099583;28;19919;-73
2022/11/27 11:32:04;;;;;;;;;;;6.70;99.90;;;;;;5136210;27;19920;-74
2022/11/27 11:34:30;;;;;;;;;;;6.70;99.90;;;;;;5102834;28;19927;-71
2022/11/27 11:36:57;;;;;;;;;;;6.80;99.90;;;;;;5107681;28;19930;-71
2022/11/27 11:39:27;;;;;;;;;;;6.80;99.90;;;;;;5109690;28;19920;-73
2022/11/27 11:41:53;;;;;;;;;;;6.70;99.90;;;;;;5098575;28;19920;-72
2022/11/27 11:44:25;;;;;;;;;;;6.80;99.90;;;;;;5098337;27;19926;-70
2022/11/27 11:46:52;;;;;;;;;;;6.70;99.90;;;;;;5098849;27;20382;-72
2022/11/27 11:49:23;;;;;;;;;;;6.70;99.90;;;;;;5134621;27;19924;-71
2022/11/27 11:52:03;;;;;;;;;;;6.80;99.90;;;;;;5103822;28;19924;-73
2022/11/27 11:54:47;;;;;;;;;;;6.80;99.90;;;;;;5090678;27;19931;-71
2022/11/27 11:57:33;;;;;;;;;;;6.80;99.90;;;;;;5102223;27;20052;-73
2022/11/27 12:00:10;;;;;;;;;;;6.80;99.90;;;;;;5108871;28;20411;-71
2022/11/27 12:02:48;;;;;;;;;;;6.90;99.90;;;;;;5112450;27;20093;-73
2022/11/27 12:05:14;;;;;;;;;;;6.80;99.90;;;;;;5131058;27;19955;-73
2022/11/27 12:07:44;;;;;;;;;;;6.90;99.90;;;;;;5099628;28;19978;-71
2022/11/27 12:10:39;;;;;;;;;;;6.90;99.90;;;;;;5121684;27;19923;-71
2022/11/27 12:13:21;;;;;;;;;;;6.80;99.90;;;;;;5007344;28;19968;-71
2022/11/27 12:15:57;;;;;;;;;;;6.90;99.90;;;;;;5095576;27;19919;-70
2022/11/27 12:18:42;;;;;;;;;;;6.90;99.90;;;;;;5084549;28;20336;-71
2022/11/27 12:21:16;;;;;;;;;;;6.80;99.90;;;;;;5086749;28;20008;-71
2022/11/27 12:23:42;;;;;;;;;;;6.90;99.90;;;;;;5094053;28;19955;-70
2022/11/27 12:26:10;;;;;;;;;;;7.00;99.90;;;;;;5093173;28;19982;-68
2022/11/27 12:28:39;;;;;;;;;;;7.00;99.90;;;;;;5096325;28;20010;-70
2022/11/27 12:31:04;;;;;;;;;;;6.90;99.90;;;;;;5094367;28;19920;-72
2022/11/27 12:33:48;;;;;;;;;;;7.00;99.90;;;;;;5098085;28;19923;-70
2022/11/27 12:36:32;;;;;;;;;;;7.00;99.90;;;;;;5072922;28;19924;-69
2022/11/27 12:38:58;;;;;;;;;;;6.90;99.90;;;;;;5101408;28;20002;-70
2022/11/27 12:41:29;;;;;;;;;;;6.90;99.90;;;;;;5112405;28;20023;-69
2022/11/27 12:43:59;;;;;;;;;;;7.00;99.90;;;;;;5112642;28;19924;-71
2022/11/27 12:46:27;;;;;;;;;;;7.00;99.90;;;;;;5101213;28;20390;-68
2022/11/27 12:49:15;;;;;;;;;;;7.00;99.90;;;;;;5095405;28;19926;-70
2022/11/27 12:51:47;;;;;;;;;;;6.90;99.90;;;;;;5092346;28;19973;-71
2022/11/27 12:54:19;;;;;;;;;;;7.00;99.90;;;;;;5086879;28;19927;-72
2022/11/27 12:56:55;;;;;;;;;;;7.00;99.90;;;;;;5092585;28;20505;-71
2022/11/27 12:59:24;;;;;;;;;;;7.00;99.90;;;;;;5096569;28;20377;-69
2022/11/27 13:01:52;;;;;;;;;;;6.90;99.90;;;;;;5088500;28;19923;-69
2022/11/27 13:04:22;;;;;;;;;;;7.00;99.90;;;;;;5096212;28;19924;-71
2022/11/27 13:07:00;;;;;;;;;;;6.90;99.90;;;;;;5092705;28;19927;-69
2022/11/27 13:09:31;;;;;;;;;;;6.90;99.90;;;;;;5107030;28;19974;-68
2022/11/27 13:11:56;;;;;;;;;;;6.90;99.90;;;;;;5134472;27;19920;-69
2022/11/27 13:14:24;;;;;;;;;;;6.90;99.90;;;;;;5105724;27;19926;-70
2022/11/27 13:16:52;;;;;;;;;;;6.80;99.90;;;;;;5109525;28;19928;-69
2022/11/27 13:19:23;;;;;;;;;;;6.90;99.90;;;;;;5108490;28;20301;-70
2022/11/27 13:21:50;;;;;;;;;;;6.90;99.90;;;;;;5111912;28;20378;-71
2022/11/27 13:24:18;;;;;;;;;;;6.90;99.90;;;;;;5110623;28;19935;-70
2022/11/27 13:26:56;;;;;;;;;;;6.80;99.90;;;;;;5109360;28;20375;-73
2022/11/27 13:29:51;;;;;;;;;;;6.90;99.90;;;;;;5105608;28;19920;-72
2022/11/27 13:32:24;;;;;;;;;;;6.80;99.90;;;;;;5075593;27;20015;-72
2022/11/27 13:34:51;;;;;;;;;;;6.90;99.90;;;;;;5128944;27;19923;-72
2022/11/27 13:37:25;;;;;;;;;;;6.80;99.90;;;;;;5111653;28;19920;-69
2022/11/27 13:39:57;;;;;;;;;;;6.90;99.90;;;;;;5111724;28;19920;-70
2022/11/27 13:42:22;;;;;;;;;;;6.80;99.90;;;;;;5111938;28;19966;-70
2022/11/27 13:44:56;;;;;;;;;;;6.80;99.90;;;;;;5102610;28;19963;-68
2022/11/27 13:47:23;;;;;;;;;;;6.80;99.90;;;;;;5090756;28;20014;-70
2022/11/27 13:50:00;;;;;;;;;;;6.80;99.90;;;;;;5104064;28;19926;-71
2022/11/27 13:52:26;;;;;;;;;;;6.80;99.90;;;;;;5108131;28;19920;-73
2022/11/27 13:54:51;;;;;;;;;;;6.80;99.90;;;;;;5109346;28;19923;-72
2022/11/27 13:57:18;;;;;;;;;;;6.90;99.90;;;;;;5111429;28;19927;-70
2022/11/27 14:00:01;;;;;;;;;;;6.90;99.90;;;;;;5108899;28;20018;-71
2022/11/27 14:02:45;;;;;;;;;;;6.90;99.90;;;;;;5109496;28;19946;-70
2022/11/27 14:05:12;;;;;;;;;;;6.80;99.90;;;;;;5089979;28;19920;-71
2022/11/27 14:07:44;;;;;;;;;;;6.80;99.90;;;;;;5097418;28;19972;-72
2022/11/27 14:10:14;;;;;;;;;;;6.80;99.90;;;;;;5091459;28;20018;-70
2022/11/27 14:12:40;;;;;;;;;;;6.80;99.90;;;;;;5081576;28;19947;-69
2022/11/27 14:15:07;;;;;;;;;;;6.80;99.90;;;;;;5088790;28;20297;-70
2022/11/27 14:17:35;;;;;;;;;;;6.90;99.90;;;;;;5091473;28;19941;-73
2022/11/27 14:20:04;;;;;;;;;;;6.80;99.90;;;;;;5081437;28;19931;-69
2022/11/27 14:22:42;;;;;;;;;;;6.80;99.90;;;;;;5084719;28;19977;-69
2022/11/27 14:25:19;;;;;;;;;;;6.80;99.90;;;;;;5092695;28;20044;-68
2022/11/27 14:27:46;;;;;;;;;;;6.80;99.90;;;;;;5105597;28;19998;-68
2022/11/27 14:30:28;;;;;;;;;;;6.80;99.90;;;;;;5093309;28;19919;-69
2022/11/27 14:32:53;;;;;;;;;;;6.80;99.90;;;;;;5101553;27;19920;-70
2022/11/27 14:35:23;;;;;;;;;;;6.80;99.90;;;;;;5088112;28;20144;-69
2022/11/27 14:37:49;;;;;;;;;;;6.80;99.90;;;;;;5089221;28;19920;-69